עמוד ראשי
METAR-TAF:

METAR-TAF

שדות תעופה :

Barrow, אלסקה, ארצות הברית

קו רוחב: 71-17-07N, קו אורך: 156-45-57W, גובה: 13מטר

תצפית מזג אוויר נוכחית

הדו"ח נערך לפני 5 שעות ו 16דקות, בשעה 05:53 UTC
רוח 14קשר מכיוון מזרח/צפון-מזרח
טמפרטורת 6 צלסיוס
לחות 75%
לחץ 1015 hPa
ראות: 16.1קילומטר
שמיים נקיים

METAR: PABR 120553Z 07014KT 10SM CLR 06/02 A2997

זמן: 03:09 (11:09 UTC)

תחזית

הדו"ח נערך לפני 5 שעות ו 40דקות, בשעה 05:29 UTC
תחזית בתוקף מ 12 ב 06 UTC עד 13 ב 06 UTC
רוח 12קשר מכיוון מזרח/צפון-מזרח
ראות: 10קילומטר
שמיים נקיים

TAF: PABR 120529Z 1206/1306 07012KT P6SM SKC

תצפיות ותחזיות מזג אוויר לגבי יותר מ- 4,000 שדות תעופה ברחבי העולם. דוחות METAR ו- TAF.

התחנות הזמינות מסומנות בנקודות צהובות ואדומות על גבי המפה.

העבר את העכבר לנקודה הצבעונית על מנת לראות את שם התחנה.

לאחר מכן, לחץ כדי לראות את תוכן ואת תחזיות מזג האוויר.

כדי לשנות את המפה: לחץ על הכפתורים הירוקים עם הפלוס השחור כדי להתקרב; על הכפתור הירוק עם המקף כדי להתרחק; או בחיצים הירוקים למפות סמוכות.


METAR-TAF: